Time;durP1;ratioP1;P1;durP2;ratioP2;P2;SDS_P1;SDS_P2;PMS_P1;PMS_P2;Temp;Humidity;BMP_temperature;BMP_pressure;BME280_temperature;BME280_humidity;BME280_pressure;Samples;Min_cycle;Max_cycle;Signal;HPM_P1;HPM_P2
2023/09/12 00:02:39;;;;;;;2.58;2.17;;;;;;;-140.66;100.00;55571.53;5117274;28;20518;-72
2023/09/12 00:05:25;;;;;;;3.83;2.20;;;;;;;-140.66;100.00;55571.53;5117007;28;20038;-72
2023/09/12 00:08:11;;;;;;;2.60;2.00;;;;;;;-140.66;100.00;55571.53;5116471;28;20036;-71
2023/09/12 00:11:03;;;;;;;3.38;2.13;;;;;;;-140.66;100.00;55571.53;5117250;28;20030;-71
2023/09/12 00:13:49;;;;;;;3.25;2.30;;;;;;;-140.66;100.00;55571.53;5116783;28;20497;-70
2023/09/12 00:16:34;;;;;;;3.55;2.03;;;;;;;-140.66;100.00;55571.53;5115267;28;20391;-71
2023/09/12 00:19:20;;;;;;;3.28;2.10;;;;;;;-140.66;100.00;55571.53;5115540;28;20051;-71
2023/09/12 00:22:06;;;;;;;2.60;2.10;;;;;;;-140.66;100.00;55571.53;5101358;28;20118;-71
2023/09/12 00:24:52;;;;;;;5.82;2.30;;;;;;;-140.66;100.00;55571.53;5116807;28;20027;-71
2023/09/12 00:27:37;;;;;;;3.40;2.13;;;;;;;-140.66;100.00;55571.53;5114854;28;20027;-71
2023/09/12 00:30:23;;;;;;;3.58;2.03;;;;;;;-140.66;100.00;55571.53;5116813;28;20048;-71
2023/09/12 00:33:09;;;;;;;5.65;2.53;;;;;;;-140.66;100.00;55571.53;5116008;28;20121;-71
2023/09/12 00:35:55;;;;;;;4.57;2.35;;;;;;;-140.66;100.00;55571.53;5114891;28;20024;-71
2023/09/12 00:38:40;;;;;;;4.80;2.30;;;;;;;-140.66;100.00;55571.53;5114799;28;20126;-71
2023/09/12 00:41:26;;;;;;;2.20;2.00;;;;;;;-140.66;100.00;55571.53;5116590;28;20030;-71
2023/09/12 00:44:12;;;;;;;2.97;2.00;;;;;;;-140.66;100.00;55571.53;5115683;28;20058;-71
2023/09/12 00:46:58;;;;;;;17.23;3.05;;;;;;;-140.66;100.00;55571.53;5115413;28;20028;-72
2023/09/12 00:49:45;;;;;;;6.40;2.70;;;;;;;-140.66;100.00;55571.53;5115195;28;20034;-71
2023/09/12 00:52:33;;;;;;;3.30;2.25;;;;;;;-140.66;100.00;55571.53;5100508;28;20092;-71
2023/09/12 00:55:19;;;;;;;4.78;2.30;;;;;;;-140.66;100.00;55571.53;5115821;28;20069;-70
2023/09/12 00:58:04;;;;;;;2.30;1.90;;;;;;;-140.66;100.00;55571.53;5114806;28;20077;-71
2023/09/12 01:00:50;;;;;;;4.40;2.28;;;;;;;-140.66;100.00;55571.53;5116048;28;20047;-71
2023/09/12 01:03:36;;;;;;;2.47;2.20;;;;;;;-140.66;100.00;55571.53;5115066;28;20024;-70
2023/09/12 01:06:25;;;;;;;5.95;2.33;;;;;;;-140.66;100.00;55571.53;5114320;28;20031;-71
2023/09/12 01:09:12;;;;;;;3.65;2.20;;;;;;;-140.66;100.00;55571.53;5099955;28;20461;-71
2023/09/12 01:12:00;;;;;;;4.18;2.20;;;;;;;-140.66;100.00;55571.53;5114657;28;20036;-70
2023/09/12 01:14:46;;;;;;;4.43;2.00;;;;;;;-140.66;100.00;55571.53;5101031;28;20469;-70
2023/09/12 01:17:32;;;;;;;2.53;2.03;;;;;;;-140.66;100.00;55571.53;5114495;28;20081;-70
2023/09/12 01:20:25;;;;;;;4.65;2.35;;;;;;;-140.66;100.00;55571.53;5115112;28;20387;-70
2023/09/12 01:23:37;;;;;;;6.20;2.30;;;;;;;-140.66;100.00;55571.53;5115396;28;20028;-71
2023/09/12 01:26:35;;;;;;;5.18;2.33;;;;;;;-140.66;100.00;55571.53;5090535;28;20119;-70
2023/09/12 01:29:22;;;;;;;2.95;2.10;;;;;;;-140.66;100.00;55571.53;5100226;28;20031;-71
2023/09/12 01:32:09;;;;;;;4.72;2.25;;;;;;;-140.66;100.00;55571.53;5115940;28;20039;-71
2023/09/12 01:34:55;;;;;;;3.78;2.10;;;;;;;-140.66;100.00;55571.53;5114491;28;20024;-71
2023/09/12 01:37:41;;;;;;;7.00;2.35;;;;;;;-140.66;100.00;55571.53;5114488;28;20024;-72
2023/09/12 01:40:52;;;;;;;3.08;2.10;;;;;;;-140.66;100.00;55571.53;5113626;28;20019;-71
2023/09/12 01:43:39;;;;;;;3.47;2.35;;;;;;;-140.66;100.00;55571.53;5113811;28;20416;-71
2023/09/12 01:46:27;;;;;;;2.60;1.98;;;;;;;-140.66;100.00;55571.53;5101716;28;20027;-71
2023/09/12 01:49:14;;;;;;;3.78;2.20;;;;;;;-140.66;100.00;55571.53;5114397;28;20031;-71
2023/09/12 01:52:01;;;;;;;4.03;2.25;;;;;;;-140.66;100.00;55571.53;5100266;28;20062;-70
2023/09/12 01:54:49;;;;;;;7.28;2.40;;;;;;;-140.66;100.00;55571.53;5099249;28;20035;-71
2023/09/12 01:57:39;;;;;;;2.80;2.22;;;;;;;-140.66;100.00;55571.53;5113294;28;20032;-71
2023/09/12 02:00:24;;;;;;;3.72;2.28;;;;;;;-140.66;100.00;55571.53;5114911;28;20365;-71
2023/09/12 02:03:10;;;;;;;3.10;2.22;;;;;;;-140.66;100.00;55571.53;5115818;28;20046;-71
2023/09/12 02:05:56;;;;;;;4.10;2.35;;;;;;;-140.66;100.00;55571.53;5115524;28;20023;-70
2023/09/12 02:08:42;;;;;;;3.35;2.20;;;;;;;-140.66;100.00;55571.53;5114593;28;20106;-71
2023/09/12 02:11:28;;;;;;;4.60;2.10;;;;;;;-140.66;100.00;55571.53;5114638;28;20031;-71
2023/09/12 02:14:13;;;;;;;4.10;2.17;;;;;;;-140.66;100.00;55571.53;5114157;28;20032;-71
2023/09/12 02:16:59;;;;;;;3.67;2.17;;;;;;;-140.66;100.00;55571.53;5114436;28;20026;-71
2023/09/12 02:19:47;;;;;;;3.58;2.30;;;;;;;-140.66;100.00;55571.53;5113366;28;20032;-71
2023/09/12 02:22:33;;;;;;;3.67;2.10;;;;;;;-140.66;100.00;55571.53;5113856;28;20357;-70
2023/09/12 02:25:19;;;;;;;3.15;2.05;;;;;;;-140.66;100.00;55571.53;5113975;28;20032;-70
2023/09/12 02:28:05;;;;;;;2.45;1.98;;;;;;;-140.66;100.00;55571.53;5114367;28;20088;-70
2023/09/12 02:30:51;;;;;;;2.63;2.20;;;;;;;-140.66;100.00;55571.53;5113950;28;20457;-70
2023/09/12 02:33:38;;;;;;;5.32;2.40;;;;;;;-140.66;100.00;55571.53;5114335;28;20035;-71
2023/09/12 02:36:23;;;;;;;5.28;2.20;;;;;;;-140.66;100.00;55571.53;5114220;28;20385;-71
2023/09/12 02:39:09;;;;;;;4.10;2.60;;;;;;;-140.66;100.00;55571.53;5113879;28;20015;-71
2023/09/12 02:41:55;;;;;;;3.50;2.50;;;;;;;-140.66;100.00;55571.53;5113785;28;20035;-71
2023/09/12 02:44:40;;;;;;;3.25;2.70;;;;;;;-140.66;100.00;55571.53;5113507;28;20048;-70
2023/09/12 02:47:26;;;;;;;4.05;2.40;;;;;;;-140.66;100.00;55571.53;5100086;28;20495;-71
2023/09/12 02:50:12;;;;;;;6.97;2.72;;;;;;;-140.66;100.00;55571.53;5114801;28;20108;-71
2023/09/12 02:52:58;;;;;;;7.85;2.60;;;;;;;-140.66;100.00;55571.53;5099017;28;20024;-71
2023/09/12 02:55:43;;;;;;;4.25;2.28;;;;;;;-140.66;100.00;55571.53;5113459;28;20038;-71
2023/09/12 02:58:29;;;;;;;4.60;2.55;;;;;;;-140.66;100.00;55571.53;5113864;28;20020;-70
2023/09/12 03:01:20;;;;;;;5.07;2.25;;;;;;;-140.66;100.00;55571.53;5113726;28;20038;-70
2023/09/12 03:04:05;;;;;;;5.53;2.63;;;;;;;-140.66;100.00;55571.53;5113842;28;20019;-71
2023/09/12 03:06:51;;;;;;;7.75;2.53;;;;;;;-140.66;100.00;55571.53;5113557;28;20039;-71
2023/09/12 03:09:38;;;;;;;5.40;2.47;;;;;;;-140.66;100.00;55571.53;5114068;28;20032;-71
2023/09/12 03:12:23;;;;;;;5.60;2.63;;;;;;;-140.66;100.00;55571.53;5099878;28;20027;-70
2023/09/12 03:15:09;;;;;;;3.38;2.50;;;;;;;-140.66;100.00;55571.53;5113298;28;20350;-71
2023/09/12 03:17:56;;;;;;;2.95;2.30;;;;;;;-140.66;100.00;55571.53;5113880;28;20020;-71
2023/09/12 03:20:41;;;;;;;3.42;2.60;;;;;;;-140.66;100.00;55571.53;5114024;28;20019;-71
2023/09/12 03:23:27;;;;;;;4.03;2.60;;;;;;;-140.66;100.00;55571.53;5113573;28;20055;-70
2023/09/12 03:26:14;;;;;;;2.47;2.22;;;;;;;-140.66;100.00;55571.53;5112594;28;20028;-71
2023/09/12 03:29:00;;;;;;;4.53;2.30;;;;;;;-140.66;100.00;55571.53;5113403;28;20039;-71
2023/09/12 03:31:45;;;;;;;5.60;2.42;;;;;;;-140.66;100.00;55571.53;5116291;28;20110;-71
2023/09/12 03:34:31;;;;;;;3.30;2.47;;;;;;;-140.66;100.00;55571.53;5102395;28;20438;-70
2023/09/12 03:37:17;;;;;;;4.50;2.63;;;;;;;-140.66;100.00;55571.53;5102668;28;20334;-71
2023/09/12 03:40:04;;;;;;;5.43;2.70;;;;;;;-140.66;100.00;55571.53;5102457;28;20117;-71
2023/09/12 03:42:50;;;;;;;7.25;2.42;;;;;;;-140.66;100.00;55571.53;5116738;28;20066;-70
2023/09/12 03:45:36;;;;;;;3.45;2.38;;;;;;;-140.66;100.00;55571.53;5117205;28;20054;-70
2023/09/12 03:48:21;;;;;;;5.60;2.78;;;;;;;-140.66;100.00;55571.53;5117036;28;20024;-71
2023/09/12 03:51:07;;;;;;;3.22;2.50;;;;;;;-140.66;100.00;55571.53;5102099;28;20104;-72
2023/09/12 03:53:53;;;;;;;3.75;2.60;;;;;;;-140.66;100.00;55571.53;5102465;28;20082;-71
2023/09/12 03:56:38;;;;;;;5.63;2.42;;;;;;;-140.66;100.00;55571.53;5101603;28;20024;-71
2023/09/12 03:59:24;;;;;;;4.85;2.58;;;;;;;-140.66;100.00;55571.53;5100572;28;20019;-71
2023/09/12 04:02:10;;;;;;;6.75;2.40;;;;;;;-140.66;100.00;55571.53;5117339;28;20031;-72
2023/09/12 04:04:59;;;;;;;9.60;2.78;;;;;;;-140.66;100.00;55571.53;5115667;28;20110;-70
2023/09/12 04:07:44;;;;;;;4.90;2.38;;;;;;;-140.66;100.00;55571.53;5101527;28;20511;-71
2023/09/12 04:10:32;;;;;;;9.93;2.90;;;;;;;-140.66;100.00;55571.53;5101463;28;20038;-71
2023/09/12 04:13:17;;;;;;;7.00;2.88;;;;;;;-140.66;100.00;55571.53;5117064;28;20092;-71
2023/09/12 04:16:03;;;;;;;8.20;2.58;;;;;;;-140.66;100.00;55571.53;5117536;28;20055;-71
2023/09/12 04:18:49;;;;;;;7.10;3.67;;;;;;;-140.66;100.00;55571.53;5100524;28;20023;-71
2023/09/12 04:21:35;;;;;;;14.43;3.90;;;;;;;-140.66;100.00;55571.53;5115358;28;20037;-71
2023/09/12 04:24:21;;;;;;;12.43;3.60;;;;;;;-140.66;100.00;55571.53;5116344;28;20441;-71
2023/09/12 04:27:07;;;;;;;9.45;3.47;;;;;;;-140.66;100.00;55571.53;5116285;28;20093;-72
2023/09/12 04:29:52;;;;;;;11.60;3.97;;;;;;;-140.66;100.00;55571.53;5101965;28;20045;-71
2023/09/12 04:32:38;;;;;;;12.63;3.00;;;;;;;-140.66;100.00;55571.53;5116286;28;20038;-71
2023/09/12 04:35:25;;;;;;;10.38;3.55;;;;;;;-140.66;100.00;55571.53;5115191;28;20055;-72
2023/09/12 04:38:10;;;;;;;10.05;3.10;;;;;;;-140.66;100.00;55571.53;5116491;28;20027;-72
2023/09/12 04:40:57;;;;;;;12.00;3.33;;;;;;;-140.66;100.00;55571.53;5115611;28;20107;-70
2023/09/12 04:43:44;;;;;;;21.67;3.38;;;;;;;-140.66;100.00;55571.53;5115415;28;20043;-72
2023/09/12 04:46:30;;;;;;;10.25;4.38;;;;;;;-140.66;100.00;55571.53;5116955;28;20074;-71
2023/09/12 04:49:16;;;;;;;8.27;3.40;;;;;;;-140.66;100.00;55571.53;5115925;28;20102;-71
2023/09/12 04:52:02;;;;;;;11.38;3.70;;;;;;;-140.66;100.00;55571.53;5101206;28;20035;-72
2023/09/12 04:54:47;;;;;;;22.77;4.07;;;;;;;-140.66;100.00;55571.53;5100456;28;20051;-71
2023/09/12 04:57:33;;;;;;;9.50;3.40;;;;;;;-140.66;100.00;55571.53;5115579;28;20074;-70
2023/09/12 05:00:19;;;;;;;7.28;2.83;;;;;;;-140.66;100.00;55571.53;5116622;28;20106;-72
2023/09/12 05:03:05;;;;;;;7.13;3.33;;;;;;;-140.66;100.00;55571.53;5115157;28;20034;-71
2023/09/12 05:05:50;;;;;;;11.73;3.78;;;;;;;-140.66;100.00;55571.53;5115982;28;20028;-72
2023/09/12 05:08:36;;;;;;;9.20;3.42;;;;;;;-140.66;100.00;55571.53;5115442;28;20028;-71
2023/09/12 05:11:26;;;;;;;5.10;3.00;;;;;;;-140.66;100.00;55571.53;5114183;28;20028;-72
2023/09/12 05:14:11;;;;;;;7.05;4.22;;;;;;;-140.66;100.00;55571.53;5114487;28;20019;-72
2023/09/12 05:16:57;;;;;;;4.80;2.88;;;;;;;-140.66;100.00;55571.53;5100517;28;20032;-71
2023/09/12 05:19:43;;;;;;;5.75;3.10;;;;;;;-140.66;100.00;55571.53;5114854;28;20027;-71
2023/09/12 05:22:29;;;;;;;9.65;3.58;;;;;;;-140.66;100.00;55571.53;5115762;28;20122;-71
2023/09/12 05:25:14;;;;;;;7.78;2.80;;;;;;;-140.66;100.00;55571.53;5100259;28;20028;-70
2023/09/12 05:28:00;;;;;;;4.80;2.70;;;;;;;-140.66;100.00;55571.53;5114570;28;20031;-72
2023/09/12 05:30:46;;;;;;;8.07;2.58;;;;;;;-140.66;100.00;55571.53;5115028;28;20024;-72
2023/09/12 05:33:32;;;;;;;9.13;2.80;;;;;;;-140.66;100.00;55571.53;5115502;28;20034;-71
2023/09/12 05:36:17;;;;;;;5.93;2.70;;;;;;;-140.66;100.00;55571.53;5115915;28;20400;-72
2023/09/12 05:39:03;;;;;;;6.20;2.30;;;;;;;-140.66;100.00;55571.53;5113573;28;20128;-72
2023/09/12 05:41:49;;;;;;;4.32;2.35;;;;;;;-140.66;100.00;55571.53;5114573;28;20030;-72
2023/09/12 05:44:35;;;;;;;5.80;2.40;;;;;;;-140.66;100.00;55571.53;5115598;28;20074;-71
2023/09/12 05:47:21;;;;;;;4.10;2.28;;;;;;;-140.66;100.00;55571.53;5115272;28;20039;-72
2023/09/12 05:50:07;;;;;;;3.00;2.28;;;;;;;-140.66;100.00;55571.53;5115365;28;20084;-71
2023/09/12 05:52:52;;;;;;;7.70;2.60;;;;;;;-140.66;100.00;55571.53;5114193;28;20027;-71
2023/09/12 05:55:38;;;;;;;6.47;2.17;;;;;;;-140.66;100.00;55571.53;5114094;28;20487;-70
2023/09/12 05:58:24;;;;;;;5.03;2.53;;;;;;;-140.66;100.00;55571.53;5114976;28;20510;-71
2023/09/12 06:01:10;;;;;;;4.05;2.40;;;;;;;-140.66;100.00;55571.53;5113878;28;20027;-71
2023/09/12 06:03:56;;;;;;;6.88;2.50;;;;;;;-140.66;100.00;55571.53;5115450;28;20023;-70
2023/09/12 06:06:42;;;;;;;4.95;2.30;;;;;;;-140.66;100.00;55571.53;5100092;28;20115;-70
2023/09/12 06:09:28;;;;;;;8.82;2.60;;;;;;;-140.66;100.00;55571.53;5114335;28;20106;-71
2023/09/12 06:12:13;;;;;;;11.02;2.95;;;;;;;-140.66;100.00;55571.53;5099714;28;20038;-71
2023/09/12 06:14:59;;;;;;;5.93;3.33;;;;;;;-140.66;100.00;55571.53;5100438;28;20116;-71
2023/09/12 06:17:45;;;;;;;10.27;2.85;;;;;;;-140.66;100.00;55571.53;5099759;28;20038;-71
2023/09/12 06:20:31;;;;;;;7.80;2.80;;;;;;;-140.66;100.00;55571.53;5112990;28;20027;-71
2023/09/12 06:23:17;;;;;;;12.38;3.10;;;;;;;-140.66;100.00;55571.53;5113020;28;20035;-71
2023/09/12 06:26:03;;;;;;;9.02;2.90;;;;;;;-140.66;100.00;55571.53;5114616;28;20430;-71
2023/09/12 06:28:48;;;;;;;15.75;2.80;;;;;;;-140.66;100.00;55571.53;5114127;28;20028;-71
2023/09/12 06:31:35;;;;;;;7.97;2.70;;;;;;;-140.66;100.00;55571.53;5098866;28;20031;-71
2023/09/12 06:34:21;;;;;;;6.80;2.95;;;;;;;-140.66;100.00;55571.53;5115208;28;20165;-72
2023/09/12 06:37:06;;;;;;;12.18;3.50;;;;;;;-140.66;100.00;55571.53;5100100;28;20441;-71
2023/09/12 06:39:52;;;;;;;8.55;3.60;;;;;;;-140.66;100.00;55571.53;5113828;28;20451;-72
2023/09/12 06:42:38;;;;;;;17.55;3.47;;;;;;;-140.66;100.00;55571.53;5113114;28;20031;-71
2023/09/12 06:45:24;;;;;;;7.78;3.88;;;;;;;-140.66;100.00;55571.53;5113648;28;20047;-71
2023/09/12 06:48:10;;;;;;;12.00;4.45;;;;;;;-140.66;100.00;55571.53;5114297;28;20025;-72
2023/09/12 06:50:55;;;;;;;8.45;3.03;;;;;;;-140.66;100.00;55571.53;5113924;28;20027;-72
2023/09/12 06:53:41;;;;;;;11.00;2.97;;;;;;;-140.66;100.00;55571.53;5113885;28;20518;-71
2023/09/12 06:56:27;;;;;;;6.70;3.42;;;;;;;-140.66;100.00;55571.53;5112658;28;20110;-70
2023/09/12 06:59:13;;;;;;;8.73;3.30;;;;;;;-140.66;100.00;55571.53;5112397;28;20031;-71
2023/09/12 07:01:58;;;;;;;10.40;2.95;;;;;;;-140.66;100.00;55571.53;5114031;28;20031;-71
2023/09/12 07:04:44;;;;;;;7.00;2.83;;;;;;;-140.66;100.00;55571.53;5113097;28;20027;-71
2023/09/12 07:07:30;;;;;;;8.52;2.72;;;;;;;-140.66;100.00;55571.53;5104366;28;20029;-71
2023/09/12 07:10:16;;;;;;;4.55;2.72;;;;;;;-140.66;100.00;55571.53;5117852;28;20024;-71
2023/09/12 07:13:02;;;;;;;13.32;3.00;;;;;;;-140.66;100.00;55571.53;5103483;28;20020;-71
2023/09/12 07:15:49;;;;;;;6.70;2.33;;;;;;;-140.66;100.00;55571.53;5102155;28;20023;-71
2023/09/12 07:18:34;;;;;;;4.20;2.38;;;;;;;-140.66;100.00;55571.53;5116294;28;20039;-71
2023/09/12 07:21:20;;;;;;;4.10;2.60;;;;;;;-140.66;100.00;55571.53;5117514;28;20038;-70
2023/09/12 07:24:06;;;;;;;5.47;2.03;;;;;;;-140.66;100.00;55571.53;5117726;28;20140;-71
2023/09/12 07:26:52;;;;;;;4.82;2.83;;;;;;;-140.66;100.00;55571.53;5118482;28;20038;-72
2023/09/12 07:29:38;;;;;;;5.95;2.72;;;;;;;-140.66;100.00;55571.53;5116940;28;20059;-71
2023/09/12 07:32:24;;;;;;;7.45;2.70;;;;;;;-140.66;100.00;55571.53;5117285;28;20035;-71
2023/09/12 07:35:10;;;;;;;4.43;2.70;;;;;;;-140.66;100.00;55571.53;5117560;28;20042;-71
2023/09/12 07:37:56;;;;;;;2.60;2.08;;;;;;;-140.66;100.00;55571.53;5116321;28;20110;-71
2023/09/12 07:40:42;;;;;;;4.80;2.63;;;;;;;-140.66;100.00;55571.53;5117466;28;20027;-70
2023/09/12 07:43:28;;;;;;;8.82;2.50;;;;;;;-140.66;100.00;55571.53;5117701;28;20043;-70
2023/09/12 07:46:13;;;;;;;6.03;2.53;;;;;;;-140.66;100.00;55571.53;5116894;28;20114;-71
2023/09/12 07:48:59;;;;;;;6.30;2.40;;;;;;;-140.66;100.00;55571.53;5117380;28;20077;-71
2023/09/12 07:51:45;;;;;;;5.45;2.67;;;;;;;-140.66;100.00;55571.53;5111982;28;20053;-71
2023/09/12 07:54:31;;;;;;;6.25;3.40;;;;;;;-140.66;100.00;55571.53;5116367;28;20019;-72
2023/09/12 07:57:16;;;;;;;4.70;2.80;;;;;;;-140.66;100.00;55571.53;5115973;28;20034;-71
2023/09/12 08:00:10;;;;;;;6.10;3.38;;;;;;;-140.66;100.00;55571.53;5117884;28;20019;-71
2023/09/12 08:02:56;;;;;;;5.28;2.80;;;;;;;-140.66;100.00;55571.53;5102239;28;20357;-72
2023/09/12 08:05:42;;;;;;;8.48;2.50;;;;;;;-140.66;100.00;55571.53;5116623;28;20433;-72
2023/09/12 08:08:27;;;;;;;8.32;3.53;;;;;;;-140.66;100.00;55571.53;5117989;28;20035;-71
2023/09/12 08:11:13;;;;;;;5.57;2.67;;;;;;;-140.66;100.00;55571.53;5116088;28;20467;-71
2023/09/12 08:13:59;;;;;;;8.57;2.53;;;;;;;-140.66;100.00;55571.53;5102982;28;20023;-72
2023/09/12 08:16:44;;;;;;;3.50;2.22;;;;;;;-140.66;100.00;55571.53;5116086;28;20020;-72
2023/09/12 08:19:30;;;;;;;5.70;2.55;;;;;;;-140.66;100.00;55571.53;5116197;28;20066;-70
2023/09/12 08:22:16;;;;;;;3.88;2.28;;;;;;;-140.66;100.00;55571.53;5117654;28;20037;-71
2023/09/12 08:25:02;;;;;;;6.05;2.20;;;;;;;-140.66;100.00;55571.53;5115236;28;20093;-71
2023/09/12 08:27:48;;;;;;;10.73;2.53;;;;;;;-140.66;100.00;55571.53;5117085;28;20031;-71
2023/09/12 08:30:34;;;;;;;4.93;2.40;;;;;;;-140.66;100.00;55571.53;5115459;28;20032;-72
2023/09/12 08:33:19;;;;;;;6.75;2.53;;;;;;;-140.66;100.00;55571.53;5116758;28;20449;-71
2023/09/12 08:36:05;;;;;;;5.65;2.35;;;;;;;-140.66;100.00;55571.53;5115528;28;20032;-71
2023/09/12 08:38:51;;;;;;;4.95;2.22;;;;;;;-140.66;100.00;55571.53;5116387;28;20023;-71
2023/09/12 08:41:37;;;;;;;13.15;2.85;;;;;;;-140.66;100.00;55571.53;5116936;28;20069;-72
2023/09/12 08:44:23;;;;;;;9.80;2.90;;;;;;;-140.66;100.00;55571.53;5100857;28;20062;-71
2023/09/12 08:47:09;;;;;;;7.05;2.45;;;;;;;-140.66;100.00;55571.53;5101448;28;20080;-71
2023/09/12 08:49:56;;;;;;;6.35;2.55;;;;;;;-140.66;100.00;55571.53;5100031;28;20031;-72
2023/09/12 08:52:44;;;;;;;9.15;2.90;;;;;;;-140.66;100.00;55571.53;5115294;28;20035;-72
2023/09/12 08:55:33;;;;;;;5.53;2.88;;;;;;;-140.66;100.00;55571.53;5115197;28;20036;-71
2023/09/12 08:58:20;;;;;;;8.40;3.33;;;;;;;-140.66;100.00;55571.53;5114402;28;20507;-71
2023/09/12 09:01:10;;;;;;;6.53;2.88;;;;;;;-140.66;100.00;55571.53;5115397;28;20039;-71
2023/09/12 09:03:57;;;;;;;5.25;3.28;;;;;;;-140.66;100.00;55571.53;5115041;28;20433;-71
2023/09/12 09:06:43;;;;;;;3.72;2.78;;;;;;;-140.66;100.00;55571.53;5116010;28;20501;-71
2023/09/12 09:09:32;;;;;;;6.57;2.60;;;;;;;-140.66;100.00;55571.53;5115252;28;20023;-71
2023/09/12 09:12:18;;;;;;;5.25;2.55;;;;;;;-140.66;100.00;55571.53;5115522;28;20024;-71
2023/09/12 09:15:27;;;;;;;5.10;2.47;;;;;;;-140.66;100.00;55571.53;5114799;28;20027;-71
2023/09/12 09:18:13;;;;;;;7.13;2.63;;;;;;;-140.66;100.00;55571.53;5115440;28;20055;-71
2023/09/12 09:20:58;;;;;;;5.85;2.70;;;;;;;-140.66;100.00;55571.53;5115880;28;20035;-71
2023/09/12 09:23:46;;;;;;;7.75;2.70;;;;;;;-140.66;100.00;55571.53;5115531;28;20028;-71
2023/09/12 09:26:53;;;;;;;5.78;2.50;;;;;;;-140.66;100.00;55571.53;5099747;28;20132;-70
2023/09/12 09:29:48;;;;;;;7.78;2.70;;;;;;;-140.66;100.00;55571.53;5114833;28;20062;-72
2023/09/12 09:32:33;;;;;;;4.97;2.75;;;;;;;-140.66;100.00;55571.53;5105398;28;20032;-71
2023/09/12 09:35:19;;;;;;;8.38;2.88;;;;;;;-140.66;100.00;55571.53;5113563;28;20088;-71
2023/09/12 09:38:06;;;;;;;11.98;3.38;;;;;;;-140.66;100.00;55571.53;5114269;28;20015;-72
2023/09/12 09:40:52;;;;;;;7.93;2.60;;;;;;;-140.66;100.00;55571.53;5114316;28;20088;-72
2023/09/12 09:43:38;;;;;;;6.68;2.35;;;;;;;-140.66;100.00;55571.53;5115080;28;20155;-73
2023/09/12 09:46:23;;;;;;;10.57;3.20;;;;;;;-140.66;100.00;55571.53;5113852;28;20072;-72
2023/09/12 09:49:19;;;;;;;10.10;4.88;;;;;;;-140.66;100.00;55571.53;5115034;28;20027;-72
2023/09/12 09:52:05;;;;;;;10.02;3.50;;;;;;;-140.66;100.00;55571.53;5100648;28;20093;-73
2023/09/12 09:54:51;;;;;;;6.25;3.15;;;;;;;-140.66;100.00;55571.53;5113681;28;20385;-72
2023/09/12 09:57:38;;;;;;;12.32;3.58;;;;;;;-140.66;100.00;55571.53;5114523;28;20024;-71
2023/09/12 10:00:25;;;;;;;17.08;3.40;;;;;;;-140.66;100.00;55571.53;5113907;28;20502;-71
2023/09/12 10:03:13;;;;;;;12.63;3.33;;;;;;;-140.66;100.00;55571.53;5113913;28;20035;-71
2023/09/12 10:06:04;;;;;;;7.50;3.50;;;;;;;-140.66;100.00;55571.53;5113110;28;20035;-72
2023/09/12 10:08:52;;;;;;;10.20;3.17;;;;;;;-140.66;100.00;55571.53;5113628;28;20031;-72
2023/09/12 10:11:39;;;;;;;8.88;3.10;;;;;;;-140.66;100.00;55571.53;5113176;28;20339;-71
2023/09/12 10:14:27;;;;;;;7.78;3.20;;;;;;;-140.66;100.00;55571.53;5099616;28;20027;-72
2023/09/12 10:17:18;;;;;;;9.02;3.33;;;;;;;-140.66;100.00;55571.53;5100397;28;20110;-71
2023/09/12 10:20:11;;;;;;;6.80;3.00;;;;;;;-140.66;100.00;55571.53;5099310;28;20020;-72
2023/09/12 10:23:03;;;;;;;9.25;3.55;;;;;;;-140.66;100.00;55571.53;5100791;28;20023;-71
2023/09/12 10:25:50;;;;;;;6.25;3.20;;;;;;;-140.66;100.00;55571.53;5112667;28;20023;-71
2023/09/12 10:28:39;;;;;;;11.38;3.60;;;;;;;-140.66;100.00;55571.53;5113566;28;20023;-71
2023/09/12 10:31:27;;;;;;;6.63;4.07;;;;;;;-140.66;100.00;55571.53;5112963;28;20024;-70
2023/09/12 10:34:14;;;;;;;7.38;3.47;;;;;;;-140.66;100.00;55571.53;5113208;28;20477;-72
2023/09/12 10:37:04;;;;;;;10.20;3.20;;;;;;;-140.66;100.00;55571.53;5113856;28;20039;-73
2023/09/12 10:39:53;;;;;;;8.77;3.60;;;;;;;-140.66;100.00;55571.53;5113323;28;20054;-71
2023/09/12 10:42:39;;;;;;;10.68;4.28;;;;;;;-140.66;100.00;55571.53;5113971;28;20019;-71
2023/09/12 10:45:26;;;;;;;10.80;4.00;;;;;;;-140.66;100.00;55571.53;5098533;28;20070;-72
2023/09/12 10:48:11;;;;;;;7.10;3.40;;;;;;;-140.66;100.00;55571.53;5099449;28;20038;-72
2023/09/12 10:51:00;;;;;;;8.38;3.22;;;;;;;-140.66;100.00;55571.53;5114312;28;20024;-72
2023/09/12 10:53:49;;;;;;;10.20;3.30;;;;;;;-140.66;100.00;55571.53;5113032;28;20517;-72
2023/09/12 10:56:35;;;;;;;13.13;3.20;;;;;;;-140.66;100.00;55571.53;5113694;28;20037;-71
2023/09/12 10:59:25;;;;;;;12.25;3.25;;;;;;;-140.66;100.00;55571.53;5114323;28;20035;-72
2023/09/12 11:02:31;;;;;;;10.02;3.28;;;;;;;-140.66;100.00;55571.53;5113408;28;20019;-71
2023/09/12 11:05:29;;;;;;;8.70;3.40;;;;;;;-140.66;100.00;55571.53;5114779;28;20031;-72
2023/09/12 11:08:15;;;;;;;5.18;3.20;;;;;;;-140.66;100.00;55571.53;5114162;28;20028;-72
2023/09/12 11:11:22;;;;;;;8.38;3.53;;;;;;;-140.66;100.00;55571.53;5112998;28;20066;-72
2023/09/12 11:14:09;;;;;;;7.13;3.10;;;;;;;-140.66;100.00;55571.53;5112303;28;20441;-72
2023/09/12 11:17:20;;;;;;;8.40;3.33;;;;;;;-140.66;100.00;55571.53;5114073;28;20090;-72
2023/09/12 11:20:10;;;;;;;5.38;3.53;;;;;;;-140.66;100.00;55571.53;5112944;28;20027;-71
2023/09/12 11:23:10;;;;;;;5.70;3.50;;;;;;;-140.66;100.00;55571.53;5114769;28;20023;-71
2023/09/12 11:26:07;;;;;;;9.10;3.88;;;;;;;-140.66;100.00;55571.53;5112626;28;20027;-71
2023/09/12 11:28:55;;;;;;;7.60;3.70;;;;;;;-140.66;100.00;55571.53;5114983;28;20039;-71
2023/09/12 11:31:42;;;;;;;7.53;4.03;;;;;;;-140.66;100.00;55571.53;5113028;28;20469;-71
2023/09/12 11:34:29;;;;;;;8.15;3.78;;;;;;;-140.66;100.00;55571.53;5113734;28;20032;-72
2023/09/12 11:37:26;;;;;;;7.53;3.97;;;;;;;-140.66;100.00;55571.53;5113769;28;20433;-73
2023/09/12 11:40:11;;;;;;;10.77;3.58;;;;;;;-140.66;100.00;55571.53;5114119;28;20492;-71
2023/09/12 11:42:57;;;;;;;9.85;3.70;;;;;;;-140.66;100.00;55571.53;5114179;28;20024;-72
2023/09/12 11:45:44;;;;;;;13.05;3.85;;;;;;;-140.66;100.00;55571.53;5111878;28;20354;-72
2023/09/12 11:48:31;;;;;;;9.15;4.50;;;;;;;-140.66;100.00;55571.53;5112628;28;20070;-73
2023/09/12 11:51:16;;;;;;;6.20;3.50;;;;;;;-140.66;100.00;55571.53;5112943;28;20050;-71
2023/09/12 11:54:04;;;;;;;14.65;5.47;;;;;;;-140.66;100.00;55571.53;5117187;28;20173;-72
2023/09/12 11:56:56;;;;;;;7.88;3.88;;;;;;;-140.66;100.00;55571.53;5117161;28;20024;-72
2023/09/12 11:59:51;;;;;;;10.32;3.90;;;;;;;-140.66;100.00;55571.53;5117721;28;20326;-73
2023/09/12 12:02:37;;;;;;;9.60;4.68;;;;;;;-140.66;100.00;55571.53;5118421;28;20035;-73
2023/09/12 12:05:23;;;;;;;7.63;4.43;;;;;;;-140.66;100.00;55571.53;5100932;28;20101;-72
2023/09/12 12:08:10;;;;;;;6.68;3.83;;;;;;;-140.66;100.00;55571.53;5102503;28;20027;-71
2023/09/12 12:10:58;;;;;;;15.00;4.20;;;;;;;-140.66;100.00;55571.53;5117405;28;20027;-71
2023/09/12 12:13:44;;;;;;;10.68;4.20;;;;;;;-140.66;100.00;55571.53;5117125;28;20023;-71
2023/09/12 12:16:30;;;;;;;9.43;4.10;;;;;;;-140.66;100.00;55571.53;5116496;28;20035;-71
2023/09/12 12:19:15;;;;;;;9.00;4.05;;;;;;;-140.66;100.00;55571.53;5117416;28;20023;-71
2023/09/12 12:22:01;;;;;;;8.38;4.03;;;;;;;-140.66;100.00;55571.53;5116667;28;20366;-70
2023/09/12 12:24:51;;;;;;;16.10;4.75;;;;;;;-140.66;100.00;55571.53;5116052;28;20420;-72
2023/09/12 12:27:38;;;;;;;15.45;4.35;;;;;;;-140.66;100.00;55571.53;5116920;28;20126;-72
2023/09/12 12:30:24;;;;;;;6.45;4.00;;;;;;;-140.66;100.00;55571.53;5116727;28;20024;-72
2023/09/12 12:33:10;;;;;;;12.00;4.40;;;;;;;-140.66;100.00;55571.53;5116951;28;20063;-72
2023/09/12 12:36:03;;;;;;;9.98;4.43;;;;;;;-140.66;100.00;55571.53;5116577;28;20046;-71
2023/09/12 12:38:50;;;;;;;16.55;4.40;;;;;;;-140.66;100.00;55571.53;5117340;28;20457;-72